Time;durP1;ratioP1;P1;durP2;ratioP2;P2;SDS_P1;SDS_P2;PMS_P1;PMS_P2;Temp;Humidity;BMP_temperature;BMP_pressure;BME280_temperature;BME280_humidity;BME280_pressure;Samples;Min_cycle;Max_cycle;Signal;HPM_P1;HPM_P2
2023/01/28 00:01:25;;;;;;;8.30;6.30;;;1.80;70.70;;;;;;5075314;28;20452;-62
2023/01/28 00:03:52;;;;;;;8.70;6.97;;;1.70;77.80;;;;;;5080715;28;20473;-60
2023/01/28 00:06:19;;;;;;;8.43;6.97;;;1.70;70.00;;;;;;5078552;28;20409;-61
2023/01/28 00:08:46;;;;;;;8.27;7.33;;;1.70;76.70;;;;;;5081327;28;20419;-60
2023/01/28 00:11:14;;;;;;;8.60;7.13;;;1.80;80.20;;;;;;5079052;28;20425;-59
2023/01/28 00:13:41;;;;;;;12.40;7.00;;;1.80;75.80;;;;;;5082278;28;20425;-59
2023/01/28 00:16:09;;;;;;;9.32;7.03;;;1.80;67.40;;;;;;5080601;28;20414;-62
2023/01/28 00:18:36;;;;;;;11.45;8.68;;;1.70;65.30;;;;;;5077983;28;20416;-60
2023/01/28 00:21:06;;;;;;;9.77;8.27;;;1.60;59.70;;;;;;5078374;28;20944;-62
2023/01/28 00:23:36;;;;;;;10.48;8.20;;;1.60;61.50;;;;;;5081401;28;20415;-61
2023/01/28 00:26:04;;;;;;;10.40;8.38;;;1.70;65.40;;;;;;5078405;28;20902;-60
2023/01/28 00:28:32;;;;;;;9.43;8.23;;;1.80;65.00;;;;;;5076704;28;20506;-60
2023/01/28 00:31:05;;;;;;;9.43;7.82;;;1.90;54.90;;;;;;5078519;28;20419;-61
2023/01/28 00:33:32;;;;;;;10.48;8.95;;;1.90;45.60;;;;;;5078160;28;20826;-60
2023/01/28 00:35:59;;;;;;;9.53;8.50;;;1.80;56.00;;;;;;5083483;28;20441;-61
2023/01/28 00:38:27;;;;;;;10.60;9.20;;;1.80;58.20;;;;;;5079156;28;20787;-61
2023/01/28 00:40:54;;;;;;;13.98;9.27;;;2.00;59.90;;;;;;5078073;28;20431;-60
2023/01/28 00:43:21;;;;;;;11.98;9.63;;;2.00;57.40;;;;;;5075390;28;20422;-59
2023/01/28 00:45:49;;;;;;;12.13;10.10;;;2.00;53.60;;;;;;5081105;28;20543;-60
2023/01/28 00:48:15;;;;;;;11.90;10.30;;;1.90;52.50;;;;;;5073473;28;20896;-60
2023/01/28 00:50:43;;;;;;;11.73;9.68;;;1.70;51.70;;;;;;5078707;28;20416;-60
2023/01/28 00:53:09;;;;;;;14.27;10.02;;;1.70;50.60;;;;;;5083098;28;20410;-60
2023/01/28 00:55:37;;;;;;;12.57;10.25;;;1.60;59.80;;;;;;5078822;28;20418;-60
2023/01/28 00:58:03;;;;;;;12.00;10.05;;;1.70;70.20;;;;;;5080497;28;20406;-62
2023/01/28 01:00:30;;;;;;;12.98;10.32;;;1.80;68.80;;;;;;5077709;28;20422;-62
2023/01/28 01:02:58;;;;;;;12.98;10.55;;;1.70;61.80;;;;;;5077140;28;20417;-60
2023/01/28 01:05:25;;;;;;;13.40;10.60;;;1.70;73.40;;;;;;5080002;28;20825;-59
2023/01/28 01:07:51;;;;;;;12.68;9.57;;;1.90;65.40;;;;;;5078538;28;20414;-59
2023/01/28 01:10:20;;;;;;;11.55;9.85;;;2.00;58.50;;;;;;5078444;28;20411;-59
2023/01/28 01:12:47;;;;;;;12.30;10.40;;;2.10;50.60;;;;;;5082378;28;20406;-59
2023/01/28 01:15:14;;;;;;;13.40;10.33;;;2.10;43.20;;;;;;5074765;28;20420;-59
2023/01/28 01:17:43;;;;;;;12.85;10.68;;;2.20;43.00;;;;;;5082443;28;20421;-59
2023/01/28 01:20:14;;;;;;;13.52;11.68;;;2.30;39.80;;;;;;5077586;28;20457;-59
2023/01/28 01:22:41;;;;;;;13.68;11.27;;;2.10;30.30;;;;;;5080333;28;20529;-59
2023/01/28 01:25:09;;;;;;;12.18;10.73;;;2.10;34.70;;;;;;5075336;28;20424;-60
2023/01/28 01:27:35;;;;;;;14.07;10.85;;;2.10;39.80;;;;;;5082274;28;20409;-60
2023/01/28 01:30:02;;;;;;;13.55;10.80;;;1.90;39.40;;;;;;5074629;28;20469;-58
2023/01/28 01:32:30;;;;;;;13.82;10.65;;;1.80;46.50;;;;;;5082204;28;20985;-59
2023/01/28 01:34:57;;;;;;;12.40;10.52;;;1.80;53.80;;;;;;5074142;28;20454;-59
2023/01/28 01:37:25;;;;;;;12.70;10.75;;;1.80;56.90;;;;;;5081437;28;20488;-59
2023/01/28 01:39:52;;;;;;;14.52;11.85;;;1.70;56.30;;;;;;5074862;28;20432;-59
2023/01/28 01:42:19;;;;;;;15.98;12.90;;;1.70;60.60;;;;;;5078124;28;21255;-60
2023/01/28 01:45:01;;;;;;;15.98;13.20;;;1.70;71.00;;;;;;5075308;28;20420;-59
2023/01/28 01:47:33;;;;;;;18.33;13.65;;;1.70;77.20;;;;;;5077969;28;20427;-60
2023/01/28 01:50:04;;;;;;;15.88;13.13;;;1.60;80.00;;;;;;5075938;28;20417;-59
2023/01/28 01:52:35;;;;;;;16.52;13.40;;;1.60;80.60;;;;;;5076618;28;20419;-59
2023/01/28 01:55:06;;;;;;;16.85;13.32;;;1.70;80.50;;;;;;5080540;28;20418;-58
2023/01/28 01:57:36;;;;;;;17.52;13.80;;;1.50;57.70;;;;;;5077225;28;20418;-60
2023/01/28 02:00:05;;;;;;;20.00;14.30;;;1.50;68.00;;;;;;5077185;28;21083;-59
2023/01/28 02:02:38;;;;;;;18.15;13.80;;;1.50;72.00;;;;;;5082172;28;20413;-58
2023/01/28 02:05:06;;;;;;;18.52;14.05;;;1.50;79.50;;;;;;5077698;28;20423;-59
2023/01/28 02:07:34;;;;;;;16.25;13.95;;;1.50;84.30;;;;;;5082407;28;20825;-59
2023/01/28 02:10:01;;;;;;;16.93;14.00;;;1.40;69.30;;;;;;5077407;28;20526;-59
2023/01/28 02:12:31;;;;;;;16.88;13.77;;;1.40;70.60;;;;;;5075174;28;20917;-60
2023/01/28 02:15:01;;;;;;;17.33;13.40;;;1.40;72.60;;;;;;5073010;28;20438;-59
2023/01/28 02:17:28;;;;;;;16.15;12.50;;;1.40;70.40;;;;;;5079095;28;20886;-59
2023/01/28 02:19:59;;;;;;;17.75;13.13;;;1.50;56.70;;;;;;5073500;28;20435;-59
2023/01/28 02:23:04;;;;;;;14.95;12.50;;;1.40;51.10;;;;;;5081703;28;20409;-59
2023/01/28 02:25:53;;;;;;;17.17;12.13;;;1.50;48.10;;;;;;5077023;28;20414;-59
2023/01/28 02:28:31;;;;;;;15.98;12.88;;;1.40;44.90;;;;;;5081255;28;20409;-59
2023/01/28 02:31:06;;;;;;;15.85;12.07;;;1.30;47.70;;;;;;5069528;28;20428;-59
2023/01/28 02:33:39;;;;;;;17.05;13.73;;;1.30;47.30;;;;;;5080288;28;20411;-59
2023/01/28 02:36:14;;;;;;;15.32;11.50;;;1.20;47.70;;;;;;5079118;28;20921;-59
2023/01/28 02:38:45;;;;;;;15.07;10.90;;;1.20;43.40;;;;;;5078564;28;20415;-59
2023/01/28 02:41:21;;;;;;;13.93;10.70;;;1.10;33.80;;;;;;5076939;28;20435;-59
2023/01/28 02:43:49;;;;;;;12.43;10.18;;;1.20;42.40;;;;;;5073210;28;20907;-58
2023/01/28 02:49:11;;;;;;;12.02;9.20;;;1.30;29.20;;;;;;5075840;28;20407;-59
2023/01/28 02:51:49;;;;;;;11.45;8.98;;;1.40;14.20;;;;;;5075868;28;20414;-59
2023/01/28 02:54:27;;;;;;;11.60;9.25;;;1.30;18.90;;;;;;5075934;28;20403;-59
2023/01/28 02:57:01;;;;;;;9.75;7.68;;;1.20;15.20;;;;;;5075643;28;20421;-58
2023/01/28 02:59:36;;;;;;;10.88;8.82;;;1.00;6.70;;;;;;5071937;28;20443;-57
2023/01/28 03:02:12;;;;;;;10.90;8.65;;;1.00;14.20;;;;;;5075183;28;20436;-59
2023/01/28 03:04:47;;;;;;;9.47;7.97;;;1.20;13.00;;;;;;5074576;28;20481;-59
2023/01/28 03:07:16;;;;;;;10.25;7.85;;;1.30;3.20;;;;;;5077727;28;20467;-59
2023/01/28 03:09:45;;;;;;;9.70;7.60;;;1.10;1.00;;;;;;5078543;28;20427;-63
2023/01/28 03:37:31;;;;;;;12.70;8.68;;;1.10;1.00;;;;;;5076608;28;20415;-61
2023/01/28 03:40:03;;;;;;;10.93;8.53;;;1.10;1.00;;;;;;5080330;28;20411;-61
2023/01/28 03:42:31;;;;;;;14.50;10.32;;;1.00;1.00;;;;;;5084305;28;20410;-62
2023/01/28 03:44:57;;;;;;;13.43;9.57;;;0.90;1.00;;;;;;5076967;28;20748;-62
2023/01/28 03:47:28;;;;;;;11.55;9.50;;;1.00;1.00;;;;;;5082941;28;20502;-62
2023/01/28 03:49:58;;;;;;;13.02;9.88;;;1.00;1.00;;;;;;5080009;28;20419;-62
2023/01/28 03:52:26;;;;;;;16.30;12.02;;;1.00;1.00;;;;;;5080158;28;20473;-58
2023/01/28 03:54:53;;;;;;;15.83;12.43;;;1.10;1.00;;;;;;5082715;28;20523;-61
2023/01/28 03:57:22;;;;;;;16.37;12.37;;;1.00;1.00;;;;;;5077614;28;20415;-62
2023/01/28 03:59:49;;;;;;;16.33;11.63;;;1.00;1.00;;;;;;5078242;28;20469;-62
2023/01/28 04:02:19;;;;;;;14.35;11.48;;;0.90;1.00;;;;;;5075007;28;20787;-62
2023/01/28 04:04:48;;;;;;;14.95;11.95;;;0.90;1.00;;;;;;5081251;28;20416;-61
2023/01/28 04:07:16;;;;;;;13.80;11.30;;;0.90;1.00;;;;;;5080722;28;20507;-62
2023/01/28 04:09:43;;;;;;;15.57;12.18;;;1.00;1.00;;;;;;5081164;28;20445;-57
2023/01/28 04:12:10;;;;;;;14.75;11.75;;;1.10;1.00;;;;;;5080135;28;20899;-60
2023/01/28 04:14:38;;;;;;;15.63;11.40;;;1.20;1.00;;;;;;5076824;28;20997;-58
2023/01/28 04:17:06;;;;;;;14.40;11.00;;;1.20;1.00;;;;;;5080800;28;20415;-59
2023/01/28 04:19:36;;;;;;;13.77;11.25;;;1.30;1.00;;;;;;5081335;28;20472;-61
2023/01/28 04:22:05;;;;;;;12.65;10.52;;;1.40;1.00;;;;;;5079148;28;20427;-62
2023/01/28 04:24:32;;;;;;;15.20;11.45;;;1.20;1.00;;;;;;5080885;28;20975;-62
2023/01/28 04:26:58;;;;;;;14.52;11.48;;;1.20;1.00;;;;;;5080938;28;20412;-62
2023/01/28 04:29:25;;;;;;;14.48;11.45;;;1.10;1.00;;;;;;5079893;28;20914;-62
2023/01/28 04:31:52;;;;;;;14.48;11.40;;;1.00;1.00;;;;;;5080994;28;20525;-62
2023/01/28 04:34:19;;;;;;;15.13;10.47;;;1.00;1.00;;;;;;5079363;28;20419;-62
2023/01/28 04:36:46;;;;;;;12.77;10.70;;;1.10;1.00;;;;;;5082079;28;20922;-61
2023/01/28 04:39:14;;;;;;;13.68;10.77;;;1.00;1.00;;;;;;5077781;28;20420;-62
2023/01/28 04:41:41;;;;;;;14.15;10.77;;;1.00;1.00;;;;;;5077092;28;20481;-62
2023/01/28 04:44:07;;;;;;;11.02;8.13;;;0.90;1.00;;;;;;5076834;28;20419;-62
2023/01/28 04:46:34;;;;;;;13.90;10.80;;;0.80;1.00;;;;;;5080138;28;20424;-63
2023/01/28 04:49:02;;;;;;;11.82;10.15;;;0.80;1.00;;;;;;5074967;28;20410;-62
2023/01/28 04:51:29;;;;;;;11.85;9.88;;;0.80;1.00;;;;;;5075825;28;20416;-62
2023/01/28 04:53:55;;;;;;;12.23;10.43;;;0.80;1.00;;;;;;5076807;28;20414;-62
2023/01/28 04:56:23;;;;;;;11.27;10.07;;;0.90;1.00;;;;;;5082601;28;20410;-61
2023/01/28 04:58:50;;;;;;;12.88;10.57;;;0.90;1.00;;;;;;5075076;28;20413;-62
2023/01/28 05:01:17;;;;;;;12.27;9.80;;;0.80;1.00;;;;;;5078829;28;20426;-62
2023/01/28 05:03:43;;;;;;;11.32;9.38;;;0.90;1.00;;;;;;5080376;28;20418;-62
2023/01/28 05:06:10;;;;;;;11.55;9.35;;;0.90;1.00;;;;;;5080563;28;20943;-62
2023/01/28 05:08:37;;;;;;;11.23;10.02;;;1.00;1.00;;;;;;5077557;28;20442;-62
2023/01/28 05:11:03;;;;;;;12.60;10.20;;;1.00;1.00;;;;;;5078680;28;20414;-62
2023/01/28 05:13:31;;;;;;;14.18;11.43;;;1.00;1.00;;;;;;5080414;28;20472;-62
2023/01/28 05:15:58;;;;;;;17.52;12.65;;;1.00;1.00;;;;;;5076781;28;20434;-62
2023/01/28 05:18:25;;;;;;;14.10;11.07;;;1.10;1.00;;;;;;5081618;28;20472;-61
2023/01/28 05:20:52;;;;;;;12.88;10.80;;;1.20;1.00;;;;;;5073530;28;20422;-61
2023/01/28 05:23:18;;;;;;;13.57;10.77;;;1.20;1.00;;;;;;5076366;28;20453;-62
2023/01/28 05:25:45;;;;;;;17.33;13.40;;;1.10;1.00;;;;;;5077987;28;20465;-62
2023/01/28 05:28:12;;;;;;;18.45;13.75;;;0.90;1.00;;;;;;5082538;28;20417;-62
2023/01/28 05:30:40;;;;;;;18.02;14.20;;;0.80;1.00;;;;;;5074926;28;20484;-62
2023/01/28 05:33:07;;;;;;;20.40;14.60;;;0.70;1.00;;;;;;5079111;28;20457;-61
2023/01/28 05:35:35;;;;;;;21.38;14.68;;;0.70;1.00;;;;;;5077601;28;20923;-64
2023/01/28 05:38:01;;;;;;;18.70;13.65;;;0.80;1.00;;;;;;5079570;28;20473;-61
2023/01/28 05:40:28;;;;;;;15.60;12.00;;;0.90;1.00;;;;;;5073130;28;20416;-59
2023/01/28 05:42:55;;;;;;;16.98;12.98;;;0.90;1.00;;;;;;5080670;28;20406;-61
2023/01/28 05:45:22;;;;;;;17.83;12.93;;;0.80;1.00;;;;;;5077996;28;20476;-64
2023/01/28 05:47:50;;;;;;;16.05;12.32;;;0.90;1.00;;;;;;5081750;28;20468;-62
2023/01/28 05:50:17;;;;;;;16.63;13.40;;;1.00;1.00;;;;;;5075876;28;20967;-62
2023/01/28 05:52:44;;;;;;;17.83;12.80;;;0.80;1.00;;;;;;5081724;28;20775;-62
2023/01/28 05:55:11;;;;;;;18.95;14.70;;;0.70;1.00;;;;;;5077542;28;20896;-62
2023/01/28 05:57:38;;;;;;;16.97;13.33;;;0.70;1.00;;;;;;5081517;28;20956;-62
2023/01/28 06:00:06;;;;;;;18.57;13.83;;;0.80;1.00;;;;;;5077123;28;20915;-62
2023/01/28 06:02:32;;;;;;;17.20;13.43;;;0.70;1.00;;;;;;5077923;28;20475;-61
2023/01/28 06:05:01;;;;;;;18.80;13.70;;;0.70;1.00;;;;;;5079410;28;20415;-62
2023/01/28 06:07:27;;;;;;;15.95;13.13;;;0.70;1.00;;;;;;5078824;28;20418;-61
2023/01/28 06:09:54;;;;;;;16.07;12.33;;;0.70;1.00;;;;;;5078611;28;20473;-61
2023/01/28 06:12:21;;;;;;;16.05;12.60;;;0.60;1.00;;;;;;5071090;28;20419;-60
2023/01/28 06:14:47;;;;;;;16.60;12.63;;;0.70;1.00;;;;;;5076245;28;20415;-62
2023/01/28 06:17:14;;;;;;;16.58;12.35;;;0.80;1.00;;;;;;5077316;28;20421;-61
2023/01/28 06:19:41;;;;;;;14.32;11.75;;;0.80;1.00;;;;;;5079541;28;20421;-62
2023/01/28 06:22:09;;;;;;;14.82;11.85;;;0.70;1.00;;;;;;5073197;28;20483;-62
2023/01/28 06:24:36;;;;;;;16.35;11.27;;;0.70;1.00;;;;;;5076713;28;20416;-61
2023/01/28 06:27:03;;;;;;;15.32;12.38;;;0.70;1.00;;;;;;5081870;28;20831;-62
2023/01/28 06:29:29;;;;;;;13.43;11.18;;;0.80;1.00;;;;;;5073825;28;20415;-61
2023/01/28 06:31:56;;;;;;;15.38;12.20;;;0.90;1.00;;;;;;5078123;28;20776;-59
2023/01/28 06:34:23;;;;;;;16.60;12.55;;;0.90;1.00;;;;;;5077559;28;20416;-62
2023/01/28 06:36:52;;;;;;;15.73;11.70;;;1.00;1.00;;;;;;5079851;28;20416;-62
2023/01/28 06:39:21;;;;;;;15.23;11.68;;;1.00;1.00;;;;;;5078105;28;20744;-60
2023/01/28 06:41:47;;;;;;;16.27;12.35;;;0.80;1.00;;;;;;5077161;28;20539;-62
2023/01/28 06:44:14;;;;;;;16.03;12.10;;;0.80;1.00;;;;;;5081400;28;20403;-62
2023/01/28 06:46:41;;;;;;;14.68;10.70;;;0.70;99.90;;;;;;5080814;28;20833;-63
2023/01/28 06:49:08;;;;;;;13.32;10.82;;;0.70;1.00;;;;;;5083809;28;20411;-62
2023/01/28 06:51:34;;;;;;;13.47;10.53;;;0.50;1.00;;;;;;5074306;28;20419;-62
2023/01/28 06:54:01;;;;;;;12.20;10.15;;;0.50;1.00;;;;;;5083817;28;20877;-62
2023/01/28 06:56:29;;;;;;;12.05;10.27;;;0.50;1.00;;;;;;5074451;28;20453;-62
2023/01/28 06:58:56;;;;;;;12.97;10.57;;;0.60;1.00;;;;;;5078178;28;20812;-62
2023/01/28 07:01:22;;;;;;;14.88;11.10;;;0.50;1.00;;;;;;5083978;28;20425;-62
2023/01/28 07:03:50;;;;;;;14.80;11.13;;;0.60;1.00;;;;;;5082269;28;20476;-62
2023/01/28 07:06:16;;;;;;;17.05;13.18;;;0.70;1.00;;;;;;5081781;28;20425;-62
2023/01/28 07:08:43;;;;;;;15.80;13.00;;;0.90;1.00;;;;;;5084603;28;20471;-62
2023/01/28 07:11:10;;;;;;;16.17;12.23;;;0.90;1.00;;;;;;5063942;28;20419;-58
2023/01/28 07:13:38;;;;;;;17.33;13.43;;;0.90;99.90;;;;;;5082776;28;20418;-61
2023/01/28 07:16:05;;;;;;;17.30;13.35;;;0.70;99.90;;;;;;5077217;28;20480;-62
2023/01/28 07:18:32;;;;;;;18.10;13.35;;;0.90;1.00;;;;;;5084323;28;20465;-59
2023/01/28 07:20:58;;;;;;;17.25;13.50;;;1.00;1.00;;;;;;5074751;28;20449;-62
2023/01/28 07:23:25;;;;;;;18.88;13.15;;;0.80;99.90;;;;;;5079609;28;20423;-63
2023/01/28 07:25:52;;;;;;;18.17;14.15;;;0.80;99.90;;;;;;5078297;28;20487;-62
2023/01/28 07:28:20;;;;;;;20.55;14.52;;;0.60;1.00;;;;;;5084351;28;20414;-62
2023/01/28 07:30:49;;;;;;;17.63;13.07;;;0.40;1.00;;;;;;5075277;28;20938;-63
2023/01/28 07:33:17;;;;;;;17.60;13.82;;;0.50;1.00;;;;;;5084560;28;20406;-62
2023/01/28 07:35:43;;;;;;;17.87;13.57;;;0.70;1.00;;;;;;5079897;28;20447;-62
2023/01/28 07:38:10;;;;;;;17.60;13.27;;;0.90;1.00;;;;;;5084298;28;20828;-62
2023/01/28 07:40:37;;;;;;;16.85;12.82;;;1.10;1.00;;;;;;5078148;28;20420;-62
2023/01/28 07:43:06;;;;;;;16.20;12.38;;;1.10;99.90;;;;;;5080369;28;20421;-62
2023/01/28 07:45:33;;;;;;;18.05;13.48;;;1.20;99.90;;;;;;5081810;28;20451;-62
2023/01/28 07:48:02;;;;;;;18.85;13.10;;;1.30;99.90;;;;;;5080950;28;20536;-62
2023/01/28 07:50:31;;;;;;;19.50;13.37;;;1.10;99.90;;;;;;5080489;28;20414;-62
2023/01/28 07:52:58;;;;;;;19.13;13.93;;;0.80;99.90;;;;;;5082972;28;20404;-62
2023/01/28 07:55:25;;;;;;;18.52;13.07;;;0.70;1.00;;;;;;5080277;28;20415;-62
2023/01/28 07:57:53;;;;;;;19.50;13.93;;;0.70;1.00;;;;;;5079715;28;20419;-62
2023/01/28 08:00:22;;;;;;;18.83;13.00;;;0.70;1.00;;;;;;5076683;28;20420;-63
2023/01/28 08:02:48;;;;;;;18.02;13.70;;;0.60;1.00;;;;;;5079257;28;20435;-60
2023/01/28 08:05:19;;;;;;;18.83;14.10;;;0.50;1.00;;;;;;5081401;28;20420;-61
2023/01/28 08:07:47;;;;;;;17.40;13.13;;;0.70;1.00;;;;;;5082363;28;20493;-61
2023/01/28 08:10:14;;;;;;;17.37;13.20;;;0.80;99.90;;;;;;5082759;28;20461;-60
2023/01/28 08:12:41;;;;;;;17.70;12.75;;;1.00;99.90;;;;;;5083833;28;20471;-60
2023/01/28 08:15:08;;;;;;;17.13;12.57;;;1.00;99.90;;;;;;5076525;28;20794;-59
2023/01/28 08:17:35;;;;;;;16.33;12.75;;;1.00;99.90;;;;;;5082663;28;20471;-59
2023/01/28 08:20:02;;;;;;;17.90;13.18;;;0.70;99.90;;;;;;5079770;28;20467;-60
2023/01/28 08:22:30;;;;;;;15.05;12.05;;;0.80;99.90;;;;;;5078990;28;20937;-60
2023/01/28 08:24:56;;;;;;;18.85;13.60;;;0.90;99.90;;;;;;5081594;28;20421;-60
2023/01/28 08:27:23;;;;;;;17.25;13.35;;;0.80;99.90;;;;;;5081996;28;20418;-59
2023/01/28 08:29:50;;;;;;;18.35;13.75;;;1.00;99.90;;;;;;5077061;28;20833;-60
2023/01/28 08:32:16;;;;;;;16.10;12.77;;;1.10;99.90;;;;;;5073911;28;20434;-60
2023/01/28 08:34:43;;;;;;;17.30;12.82;;;1.30;99.90;;;;;;5075315;28;20424;-60
2023/01/28 08:37:10;;;;;;;16.27;12.18;;;1.30;99.90;;;;;;5083486;28;20467;-61
2023/01/28 08:39:38;;;;;;;17.55;12.05;;;1.50;99.90;;;;;;5079157;28;20427;-61
2023/01/28 08:42:05;;;;;;;16.20;12.27;;;1.40;99.90;;;;;;5076537;28;20491;-61
2023/01/28 08:44:32;;;;;;;17.73;13.18;;;1.30;99.90;;;;;;5075468;28;20481;-61
2023/01/28 08:46:59;;;;;;;17.98;13.80;;;1.30;99.90;;;;;;5081865;28;20413;-61
2023/01/28 08:49:26;;;;;;;17.48;13.10;;;1.30;99.90;;;;;;5075505;28;20427;-61
2023/01/28 08:51:54;;;;;;;21.58;13.02;;;1.30;99.90;;;;;;5075165;28;21204;-61
2023/01/28 08:54:21;;;;;;;19.00;13.77;;;1.10;99.90;;;;;;5080004;28;20420;-62
2023/01/28 08:56:50;;;;;;;17.23;13.33;;;1.20;99.90;;;;;;5077002;28;20920;-61
2023/01/28 08:59:17;;;;;;;17.07;13.70;;;1.20;99.90;;;;;;5076849;28;20424;-61
2023/01/28 09:01:43;;;;;;;18.77;14.88;;;1.20;99.90;;;;;;5078565;28;20414;-61
2023/01/28 09:04:11;;;;;;;17.38;13.82;;;0.90;99.90;;;;;;5082213;28;20428;-61
2023/01/28 09:06:37;;;;;;;15.80;12.85;;;0.90;1.00;;;;;;5075651;28;20541;-60
2023/01/28 09:09:04;;;;;;;19.05;14.10;;;1.00;1.00;;;;;;5078406;28;20422;-61
2023/01/28 09:11:31;;;;;;;20.00;15.05;;;1.20;99.90;;;;;;5074064;28;22065;-61
2023/01/28 09:13:59;;;;;;;19.83;15.00;;;1.10;99.90;;;;;;5075187;28;20910;-61
2023/01/28 09:16:27;;;;;;;18.95;15.02;;;1.00;99.90;;;;;;5073690;28;21397;-61
2023/01/28 09:18:54;;;;;;;18.63;13.10;;;0.90;99.90;;;;;;5082926;28;20467;-61
2023/01/28 09:21:21;;;;;;;16.23;12.68;;;1.00;99.90;;;;;;5075850;28;20453;-60
2023/01/28 09:23:48;;;;;;;16.55;12.73;;;0.90;99.90;;;;;;5079747;28;20502;-60
2023/01/28 09:26:15;;;;;;;18.27;12.88;;;1.00;99.90;;;;;;5067829;28;20908;-61
2023/01/28 09:28:41;;;;;;;16.52;12.45;;;0.90;99.90;;;;;;5082175;28;20436;-60
2023/01/28 09:31:11;;;;;;;15.52;12.93;;;1.10;99.90;;;;;;5075082;28;20415;-64
2023/01/28 09:33:39;;;;;;;16.92;12.25;;;0.90;99.90;;;;;;5081270;28;20462;-64
2023/01/28 09:36:07;;;;;;;15.98;12.88;;;0.80;99.90;;;;;;5076175;28;20434;-63
2023/01/28 09:38:35;;;;;;;17.45;13.30;;;0.90;99.90;;;;;;5080234;28;20414;-62
2023/01/28 09:41:08;;;;;;;19.38;12.63;;;1.10;99.90;;;;;;5075946;28;20986;-59
2023/01/28 09:43:53;;;;;;;14.60;12.15;;;1.00;99.90;;;;;;5081015;28;20422;-62
2023/01/28 09:46:21;;;;;;;16.05;12.02;;;0.90;99.90;;;;;;5075473;28;20443;-61
2023/01/28 09:48:50;;;;;;;15.60;11.65;;;0.70;99.90;;;;;;5078921;28;20411;-61
2023/01/28 09:51:29;;;;;;;14.15;11.77;;;0.60;99.90;;;;;;5078970;28;20415;-61
2023/01/28 09:53:59;;;;;;;14.55;11.90;;;0.60;1.00;;;;;;5077504;28;20822;-60
2023/01/28 09:56:30;;;;;;;15.25;12.25;;;0.50;99.90;;;;;;5079021;28;20421;-62
2023/01/28 09:58:58;;;;;;;13.90;11.15;;;0.60;1.00;;;;;;5076849;28;20437;-63
2023/01/28 10:01:41;;;;;;;14.02;11.70;;;0.70;99.90;;;;;;5062355;28;20434;-64
2023/01/28 10:04:21;;;;;;;13.50;11.00;;;0.70;99.90;;;;;;5072298;28;20435;-62
2023/01/28 10:06:59;;;;;;;11.70;10.45;;;0.70;99.90;;;;;;5074486;28;20476;-61
2023/01/28 10:09:37;;;;;;;11.98;10.70;;;0.90;99.90;;;;;;5076463;28;20535;-61
2023/01/28 10:12:16;;;;;;;11.77;10.50;;;1.10;99.90;;;;;;5070728;28;20884;-61
2023/01/28 10:14:52;;;;;;;13.37;11.03;;;1.20;99.90;;;;;;5072488;28;20411;-64
2023/01/28 10:17:26;;;;;;;13.23;10.82;;;1.30;99.90;;;;;;5072414;28;20925;-62
2023/01/28 10:19:58;;;;;;;13.18;11.02;;;1.50;99.90;;;;;;5074285;28;20415;-64
2023/01/28 10:22:30;;;;;;;12.60;10.55;;;1.50;1.00;;;;;;5071450;28;20455;-62
2023/01/28 10:25:05;;;;;;;14.95;12.77;;;1.30;1.00;;;;;;5073029;28;20879;-60
2023/01/28 10:27:33;;;;;;;15.93;12.40;;;1.00;96.90;;;;;;5080250;28;20782;-61
2023/01/28 10:30:09;;;;;;;15.45;12.07;;;1.00;99.90;;;;;;5078849;28;20842;-61
2023/01/28 10:32:46;;;;;;;13.55;11.60;;;1.10;99.90;;;;;;5080615;28;20635;-62
2023/01/28 10:35:13;;;;;;;12.93;11.53;;;1.40;1.00;;;;;;5076864;28;20418;-61
2023/01/28 10:37:40;;;;;;;13.48;11.00;;;1.50;99.90;;;;;;5077222;28;20408;-61
2023/01/28 10:40:14;;;;;;;14.20;12.02;;;1.50;1.00;;;;;;5079546;28;20414;-62
2023/01/28 10:42:41;;;;;;;15.70;12.45;;;1.20;99.90;;;;;;5076943;28;20416;-61
2023/01/28 10:45:17;;;;;;;14.07;11.55;;;1.00;99.90;;;;;;5076996;28;20878;-59
2023/01/28 10:47:50;;;;;;;14.48;12.05;;;1.10;99.90;;;;;;5080116;28;20489;-62
2023/01/28 10:50:22;;;;;;;15.27;11.83;;;1.10;99.90;;;;;;5080031;28;20413;-64
2023/01/28 10:52:55;;;;;;;13.60;11.75;;;1.20;99.90;;;;;;5075075;28;20420;-63
2023/01/28 10:55:24;;;;;;;14.35;12.23;;;1.10;99.90;;;;;;5076739;28;20423;-63
2023/01/28 10:57:51;;;;;;;15.85;11.75;;;1.20;99.90;;;;;;5080138;28;20413;-62
2023/01/28 11:00:24;;;;;;;14.15;11.02;;;1.40;1.00;;;;;;5070492;28;20893;-62
2023/01/28 11:02:53;;;;;;;14.40;10.97;;;1.60;99.90;;;;;;5069881;28;20425;-63
2023/01/28 11:05:24;;;;;;;13.35;10.20;;;1.50;1.00;;;;;;5078403;28;20413;-63
2023/01/28 11:07:51;;;;;;;13.48;11.00;;;1.20;1.00;;;;;;5073146;28;20420;-63
2023/01/28 11:10:27;;;;;;;14.15;11.80;;;1.00;27.40;;;;;;5076612;28;20995;-63
2023/01/28 11:12:58;;;;;;;14.13;11.35;;;1.10;99.90;;;;;;5069538;28;20491;-63
2023/01/28 11:15:25;;;;;;;14.32;12.48;;;1.10;99.90;;;;;;5069031;28;20967;-63
2023/01/28 11:17:56;;;;;;;16.15;11.68;;;1.10;99.90;;;;;;5071811;28;20844;-63
2023/01/28 11:20:25;;;;;;;13.93;12.30;;;1.00;99.90;;;;;;5075030;28;20408;-62
2023/01/28 11:22:54;;;;;;;16.15;13.20;;;0.90;99.90;;;;;;5081587;28;20904;-62
2023/01/28 11:25:27;;;;;;;13.73;11.52;;;0.80;99.90;;;;;;5076826;28;20416;-63
2023/01/28 11:27:55;;;;;;;12.95;11.35;;;1.10;99.90;;;;;;5076060;28;20809;-63
2023/01/28 11:30:24;;;;;;;15.35;11.88;;;1.10;99.90;;;;;;5072277;28;20426;-63
2023/01/28 11:33:04;;;;;;;14.98;12.73;;;1.10;99.90;;;;;;5073372;28;20425;-63
2023/01/28 11:35:31;;;;;;;14.23;12.35;;;1.00;99.90;;;;;;5077843;28;20423;-63
2023/01/28 11:37:59;;;;;;;14.30;11.45;;;0.90;99.90;;;;;;5073317;28;20447;-63
2023/01/28 11:40:26;;;;;;;14.52;11.90;;;0.90;99.90;;;;;;5081313;28;20476;-63
2023/01/28 11:42:55;;;;;;;15.73;12.70;;;0.80;99.90;;;;;;5076464;28;20924;-63
2023/01/28 11:45:30;;;;;;;16.20;12.45;;;0.70;99.90;;;;;;5072117;28;20417;-62
2023/01/28 11:48:17;;;;;;;14.20;11.40;;;0.80;99.90;;;;;;5078519;28;20420;-63
2023/01/28 11:50:48;;;;;;;14.20;12.33;;;0.80;99.90;;;;;;5078846;28;20418;-63
2023/01/28 11:53:51;;;;;;;13.83;12.17;;;0.90;99.90;;;;;;5078370;28;20882;-63
2023/01/28 11:56:59;;;;;;;13.73;12.07;;;0.90;99.90;;;;;;5052159;28;20788;-63
2023/01/28 11:59:45;;;;;;;15.48;12.20;;;1.00;99.90;;;;;;5052035;28;20410;-63
2023/01/28 12:02:26;;;;;;;15.90;10.98;;;1.10;99.90;;;;;;5075848;28;20427;-63
2023/01/28 12:05:16;;;;;;;15.10;11.23;;;1.30;99.90;;;;;;5074631;28;20419;-63
2023/01/28 12:07:52;;;;;;;12.90;10.38;;;1.10;99.90;;;;;;5080116;28;20965;-63
2023/01/28 12:10:26;;;;;;;14.07;11.75;;;1.00;99.90;;;;;;5077126;28;20414;-61
2023/01/28 12:13:04;;;;;;;13.93;10.13;;;0.90;99.90;;;;;;5081001;28;20897;-61
2023/01/28 12:16:00;;;;;;;14.57;11.55;;;0.80;1.00;;;;;;5077409;28;20434;-61
2023/01/28 12:18:59;;;;;;;13.25;10.50;;;0.80;99.90;;;;;;5069651;28;20423;-63
2023/01/28 12:21:37;;;;;;;16.90;12.50;;;0.90;99.90;;;;;;5045693;28;20500;-63
2023/01/28 12:24:15;;;;;;;14.05;10.48;;;1.00;1.00;;;;;;5081637;28;20429;-62
2023/01/28 12:26:50;;;;;;;15.67;11.80;;;0.80;99.90;;;;;;5083565;28;20607;-61
2023/01/28 12:29:27;;;;;;;15.98;12.32;;;0.80;1.00;;;;;;5065211;28;20418;-62
2023/01/28 12:32:13;;;;;;;15.45;12.27;;;0.80;16.80;;;;;;5075351;28;20421;-61
2023/01/28 12:35:06;;;;;;;15.10;11.40;;;0.80;1.00;;;;;;5076839;28;20417;-61
2023/01/28 12:37:45;;;;;;;13.13;11.47;;;1.10;99.90;;;;;;5075500;28;20486;-60
2023/01/28 12:40:32;;;;;;;15.00;11.05;;;1.00;99.90;;;;;;5076026;28;20422;-60
2023/01/28 12:43:05;;;;;;;17.38;11.98;;;0.80;99.90;;;;;;5071478;28;20424;-61
2023/01/28 12:45:37;;;;;;;16.30;11.98;;;0.80;1.00;;;;;;5076595;28;20420;-61
2023/01/28 12:48:09;;;;;;;13.88;11.60;;;0.80;99.90;;;;;;5080063;28;20967;-60
2023/01/28 12:50:41;;;;;;;14.95;11.60;;;1.10;99.90;;;;;;5072630;28;20411;-63
2023/01/28 12:53:20;;;;;;;16.17;11.77;;;1.10;99.90;;;;;;5076515;28;21926;-63
2023/01/28 12:55:52;;;;;;;14.43;10.85;;;1.10;1.00;;;;;;5067372;28;20429;-61
2023/01/28 12:58:24;;;;;;;17.02;12.05;;;1.30;1.00;;;;;;5073297;28;20412;-62
2023/01/28 13:00:52;;;;;;;12.40;10.63;;;1.50;99.90;;;;;;5079357;28;20501;-62
2023/01/28 13:03:26;;;;;;;14.63;11.77;;;1.60;1.00;;;;;;5073065;28;20427;-62
2023/01/28 13:05:58;;;;;;;15.10;11.85;;;1.60;99.90;;;;;;5078585;28;20422;-60
2023/01/28 13:08:28;;;;;;;16.02;12.40;;;1.40;22.80;;;;;;5078138;28;20926;-58
2023/01/28 13:10:58;;;;;;;19.25;13.55;;;1.30;99.90;;;;;;5075884;28;20422;-61
2023/01/28 13:13:30;;;;;;;18.30;12.93;;;1.20;99.90;;;;;;5085588;28;20475;-61
2023/01/28 13:15:58;;;;;;;19.95;15.40;;;1.30;99.90;;;;;;5083243;28;20467;-61
2023/01/28 13:18:32;;;;;;;20.58;15.38;;;1.50;99.90;;;;;;5076004;28;20440;-61
2023/01/28 13:21:00;;;;;;;20.40;15.60;;;1.70;99.90;;;;;;5074722;28;20809;-64
2023/01/28 13:23:38;;;;;;;17.90;13.18;;;1.90;23.30;;;;;;5076984;28;20438;-60
2023/01/28 13:26:29;;;;;;;17.55;14.38;;;2.00;1.00;;;;;;5073954;28;21001;-61